Terminal Aerodrome Forecast
Issued by NWS

Home | Current Version | Previous Version | Text Only | Print | Product List | Glossary On
Versions: 1 2 3 4 5 6 7 8 9 10 11 12 13 14 15 16 17
000
FTUS44 KLZK 012300
TAFADF
TAF
KADF 012329Z 0200/0224 12006KT P6SM VCSH OVC040
     FM021000 08003KT 2SM BR SCT250
     FM021500 06005KT P6SM SCT030
     FM021800 05005KT P6SM BKN050=

USA.gov is the U.S. government's official web portal to all federal, state and local government web resources and services.